Maple Hill, NC

4:13 PM EDT on August 23, 2014 (GMT -0400)
Ellis | Change Station
CLOSE
Current Station
Airport
Location: Jacksonville,
Elevation: 95 ft
Nearby Weather Stations

Elev 95 ft 34.83 °N, 77.62 °W | Updated 18 minutes ago

Overcast
Overcast
81 °F
Feels Like 86 °F
N
0
Wind Variable Wind from North

Today
High -- | Low -- °F
--% Chance of Precip.
Yesterday
High -- | Low -- °F
Precip. -- in
6:37 AM 7:49 PM
Waning Crescent, 3% visible
Pressure 29.90 in
Visibility 4.0 miles
Clouds Mostly Cloudy 5500 ft
Overcast 6500 ft
Heat Index 86 °F
Dew Point 75 °F
Humidity 84%
Rainfall 0.45 in
Snow Depth Not available.
UV 2 out of 12
Pollen 7.60 out of 12
Air Quality Not available.
Flu Activity Not available.
METAR KOAJ 231955Z AUTO 00000KT 4SM BKN055 OVC065 27/24 A2990 RMK AO1 LTG DSNT NW TSB23E38 P0002

More Conditions Fewer Conditions

Pressure 29.90 in
Visibility 4.0 miles
Clouds Mostly Cloudy 5500 ft
Overcast 6500 ft
Heat Index 86 °F
Dew Point 75 °F
Humidity 84%
Rainfall 0.45 in
Snow Depth Not available.
UV 2 out of 12
Pollen 7.60 out of 12
Air Quality Not available.
Flu Activity Not available.
METAR KOAJ 231955Z AUTO 00000KT 4SM BKN055 OVC065 27/24 A2990 RMK AO1 LTG DSNT NW TSB23E38 P0002

More Conditions Fewer Conditions

10-Day Weather Forecast

Almanac

Astronomy

Aug. 23, 2014 Rise Set
Actual Time 6:37 AM EDT 7:49 PM EDT
Civil Twilight 6:11 AM EDT 8:15 PM EDT
Nautical Twilight 5:40 AM EDT 8:46 PM EDT
Astronomical Twilight 5:07 AM EDT 9:18 PM EDT
Moon 4:53 AM EDT 6:32 PM EDT
Length of Visible Light 14h 03m
Length of Day
13h 11m
Tomorrow will be 2m 0s shorter.
Waning Crescent, 3% of the Moon is Illuminated
Today
Waning Crescent
Aug 25
New
Sep 2
First Quarter
Sep 8
Full
Sep 15
Last Quarter

Today's Extremes

State Highs State Lows

Community

WunderPhotos

Upload Photos

1,746,597 photos uploaded!

WunderBlogs® & News

Nearby

Snow Depth

Station Depth Elevation
No new snow has been reported.

Earthquake Activity

City Distance Mag. Time & Date
No recent earthquake activity has been reported nearby.
Minimum magnitude displayed is 2.5.

Coastal Water Temperatures

Place Temperature
Beaufort, NC 82.9 °F
Johnny Mercer Pier, Wrightsville Beach, NC 84.9 °F
Hatteras, NC 82.0 °F
Oregon Inlet Marina, NC 81.0 °F

Nearby Weather Stations